sensor_id;sensor_type;location;lat;lon;timestamp;P1;durP1;ratioP1;P2;durP2;ratioP2
27543;SDS011;17996;51.056;3.656;2023-02-04T00:01:44;20.23;;;9.00;;
27543;SDS011;17996;51.056;3.656;2023-02-04T00:04:12;23.08;;;9.05;;
27543;SDS011;17996;51.056;3.656;2023-02-04T00:06:38;23.90;;;8.77;;
27543;SDS011;17996;51.056;3.656;2023-02-04T00:09:03;16.83;;;6.57;;
27543;SDS011;17996;51.056;3.656;2023-02-04T00:11:30;15.90;;;5.57;;
27543;SDS011;17996;51.056;3.656;2023-02-04T00:13:56;18.30;;;5.30;;
27543;SDS011;17996;51.056;3.656;2023-02-04T00:16:21;9.35;;;4.95;;
27543;SDS011;17996;51.056;3.656;2023-02-04T00:18:47;12.60;;;4.95;;
27543;SDS011;17996;51.056;3.656;2023-02-04T00:21:13;19.52;;;4.65;;
27543;SDS011;17996;51.056;3.656;2023-02-04T00:23:38;11.18;;;4.47;;
27543;SDS011;17996;51.056;3.656;2023-02-04T00:26:04;12.48;;;5.10;;
27543;SDS011;17996;51.056;3.656;2023-02-04T00:28:30;11.95;;;4.25;;
27543;SDS011;17996;51.056;3.656;2023-02-04T00:30:56;13.00;;;4.60;;
27543;SDS011;17996;51.056;3.656;2023-02-04T00:33:21;10.10;;;4.15;;
27543;SDS011;17996;51.056;3.656;2023-02-04T00:35:47;7.82;;;3.83;;
27543;SDS011;17996;51.056;3.656;2023-02-04T00:38:13;14.23;;;5.38;;
27543;SDS011;17996;51.056;3.656;2023-02-04T00:40:39;15.73;;;4.80;;
27543;SDS011;17996;51.056;3.656;2023-02-04T00:43:04;13.88;;;4.00;;
27543;SDS011;17996;51.056;3.656;2023-02-04T00:45:30;18.15;;;4.63;;
27543;SDS011;17996;51.056;3.656;2023-02-04T00:47:56;12.18;;;4.50;;
27543;SDS011;17996;51.056;3.656;2023-02-04T00:50:22;10.18;;;4.22;;
27543;SDS011;17996;51.056;3.656;2023-02-04T00:52:48;18.20;;;5.53;;
27543;SDS011;17996;51.056;3.656;2023-02-04T00:55:14;14.52;;;4.25;;
27543;SDS011;17996;51.056;3.656;2023-02-04T00:57:41;10.60;;;4.50;;
27543;SDS011;17996;51.056;3.656;2023-02-04T01:00:07;15.15;;;4.30;;
27543;SDS011;17996;51.056;3.656;2023-02-04T01:02:33;14.70;;;4.93;;
27543;SDS011;17996;51.056;3.656;2023-02-04T01:04:59;15.05;;;5.30;;
27543;SDS011;17996;51.056;3.656;2023-02-04T01:07:25;12.95;;;5.18;;
27543;SDS011;17996;51.056;3.656;2023-02-04T01:09:50;13.77;;;5.63;;
27543;SDS011;17996;51.056;3.656;2023-02-04T01:12:16;15.25;;;6.38;;
27543;SDS011;17996;51.056;3.656;2023-02-04T01:14:41;16.92;;;6.07;;
27543;SDS011;17996;51.056;3.656;2023-02-04T01:17:07;19.23;;;7.28;;
27543;SDS011;17996;51.056;3.656;2023-02-04T01:19:33;15.93;;;6.88;;
27543;SDS011;17996;51.056;3.656;2023-02-04T01:21:58;21.00;;;6.60;;
27543;SDS011;17996;51.056;3.656;2023-02-04T01:24:24;14.70;;;6.38;;
27543;SDS011;17996;51.056;3.656;2023-02-04T01:26:50;15.70;;;7.13;;
27543;SDS011;17996;51.056;3.656;2023-02-04T01:29:15;17.15;;;7.13;;
27543;SDS011;17996;51.056;3.656;2023-02-04T01:31:41;15.90;;;7.53;;
27543;SDS011;17996;51.056;3.656;2023-02-04T01:34:07;16.40;;;8.15;;
27543;SDS011;17996;51.056;3.656;2023-02-04T01:36:32;17.90;;;7.57;;
27543;SDS011;17996;51.056;3.656;2023-02-04T01:38:58;19.48;;;8.35;;
27543;SDS011;17996;51.056;3.656;2023-02-04T01:41:25;27.92;;;8.88;;
27543;SDS011;17996;51.056;3.656;2023-02-04T01:43:51;22.08;;;8.45;;
27543;SDS011;17996;51.056;3.656;2023-02-04T01:46:18;26.35;;;8.77;;
27543;SDS011;17996;51.056;3.656;2023-02-04T01:48:44;22.70;;;8.13;;
27543;SDS011;17996;51.056;3.656;2023-02-04T01:51:13;19.60;;;8.23;;
27543;SDS011;17996;51.056;3.656;2023-02-04T01:53:42;16.67;;;7.80;;
27543;SDS011;17996;51.056;3.656;2023-02-04T01:56:18;16.45;;;7.75;;
27543;SDS011;17996;51.056;3.656;2023-02-04T01:58:46;23.35;;;8.23;;
27543;SDS011;17996;51.056;3.656;2023-02-04T02:01:13;24.17;;;8.00;;
27543;SDS011;17996;51.056;3.656;2023-02-04T02:03:40;18.15;;;7.10;;
27543;SDS011;17996;51.056;3.656;2023-02-04T02:06:07;17.48;;;7.45;;
27543;SDS011;17996;51.056;3.656;2023-02-04T02:08:37;18.83;;;7.78;;
27543;SDS011;17996;51.056;3.656;2023-02-04T02:11:03;21.38;;;8.52;;
27543;SDS011;17996;51.056;3.656;2023-02-04T02:13:29;25.50;;;8.82;;
27543;SDS011;17996;51.056;3.656;2023-02-04T02:15:54;23.58;;;8.25;;
27543;SDS011;17996;51.056;3.656;2023-02-04T02:18:20;21.30;;;7.43;;
27543;SDS011;17996;51.056;3.656;2023-02-04T02:20:46;23.83;;;8.15;;
27543;SDS011;17996;51.056;3.656;2023-02-04T02:23:20;35.00;;;8.82;;
27543;SDS011;17996;51.056;3.656;2023-02-04T02:25:47;26.17;;;8.32;;
27543;SDS011;17996;51.056;3.656;2023-02-04T02:28:15;19.65;;;8.40;;
27543;SDS011;17996;51.056;3.656;2023-02-04T02:30:45;18.40;;;8.45;;
27543;SDS011;17996;51.056;3.656;2023-02-04T02:33:13;20.45;;;8.05;;
27543;SDS011;17996;51.056;3.656;2023-02-04T02:35:42;20.47;;;7.90;;
27543;SDS011;17996;51.056;3.656;2023-02-04T02:38:09;19.77;;;8.70;;
27543;SDS011;17996;51.056;3.656;2023-02-04T02:40:36;24.48;;;9.90;;
27543;SDS011;17996;51.056;3.656;2023-02-04T02:43:02;20.77;;;8.55;;
27543;SDS011;17996;51.056;3.656;2023-02-04T02:45:30;21.95;;;9.00;;
27543;SDS011;17996;51.056;3.656;2023-02-04T02:47:57;19.90;;;8.55;;
27543;SDS011;17996;51.056;3.656;2023-02-04T02:50:25;23.42;;;8.73;;
27543;SDS011;17996;51.056;3.656;2023-02-04T02:52:53;20.48;;;8.77;;
27543;SDS011;17996;51.056;3.656;2023-02-04T02:55:20;25.20;;;9.77;;
27543;SDS011;17996;51.056;3.656;2023-02-04T02:57:48;24.50;;;9.65;;
27543;SDS011;17996;51.056;3.656;2023-02-04T03:00:20;23.05;;;9.25;;
27543;SDS011;17996;51.056;3.656;2023-02-04T03:02:59;23.48;;;9.88;;
27543;SDS011;17996;51.056;3.656;2023-02-04T03:05:31;24.42;;;11.20;;
27543;SDS011;17996;51.056;3.656;2023-02-04T03:08:01;23.77;;;9.73;;
27543;SDS011;17996;51.056;3.656;2023-02-04T03:10:28;25.92;;;9.93;;
27543;SDS011;17996;51.056;3.656;2023-02-04T03:12:53;33.45;;;11.75;;
27543;SDS011;17996;51.056;3.656;2023-02-04T03:15:19;22.02;;;11.20;;
27543;SDS011;17996;51.056;3.656;2023-02-04T03:17:45;25.13;;;11.60;;
27543;SDS011;17996;51.056;3.656;2023-02-04T03:20:12;33.00;;;11.43;;
27543;SDS011;17996;51.056;3.656;2023-02-04T03:22:38;23.83;;;11.63;;
27543;SDS011;17996;51.056;3.656;2023-02-04T03:25:04;22.30;;;12.10;;
27543;SDS011;17996;51.056;3.656;2023-02-04T03:27:30;28.58;;;12.52;;
27543;SDS011;17996;51.056;3.656;2023-02-04T03:29:56;26.42;;;12.90;;
27543;SDS011;17996;51.056;3.656;2023-02-04T03:32:22;23.88;;;12.55;;
27543;SDS011;17996;51.056;3.656;2023-02-04T03:34:48;25.52;;;14.40;;
27543;SDS011;17996;51.056;3.656;2023-02-04T03:37:13;23.50;;;13.68;;
27543;SDS011;17996;51.056;3.656;2023-02-04T03:39:39;27.13;;;14.57;;
27543;SDS011;17996;51.056;3.656;2023-02-04T03:42:05;23.63;;;15.40;;
27543;SDS011;17996;51.056;3.656;2023-02-04T03:44:30;23.63;;;16.13;;
27543;SDS011;17996;51.056;3.656;2023-02-04T03:46:56;24.70;;;14.77;;
27543;SDS011;17996;51.056;3.656;2023-02-04T03:49:24;28.50;;;16.58;;
27543;SDS011;17996;51.056;3.656;2023-02-04T03:51:52;25.97;;;16.67;;
27543;SDS011;17996;51.056;3.656;2023-02-04T03:54:17;31.60;;;17.30;;
27543;SDS011;17996;51.056;3.656;2023-02-04T03:56:43;30.42;;;18.35;;
27543;SDS011;17996;51.056;3.656;2023-02-04T03:59:09;30.10;;;19.02;;
27543;SDS011;17996;51.056;3.656;2023-02-04T04:01:34;29.83;;;20.40;;
27543;SDS011;17996;51.056;3.656;2023-02-04T04:04:00;35.63;;;21.27;;
27543;SDS011;17996;51.056;3.656;2023-02-04T04:06:26;30.27;;;20.48;;
27543;SDS011;17996;51.056;3.656;2023-02-04T04:08:51;38.33;;;21.73;;
27543;SDS011;17996;51.056;3.656;2023-02-04T04:11:17;31.25;;;19.75;;
27543;SDS011;17996;51.056;3.656;2023-02-04T04:13:42;26.83;;;19.33;;
27543;SDS011;17996;51.056;3.656;2023-02-04T04:16:08;27.58;;;19.08;;
27543;SDS011;17996;51.056;3.656;2023-02-04T04:18:34;28.25;;;19.77;;
27543;SDS011;17996;51.056;3.656;2023-02-04T04:20:59;24.38;;;18.73;;
27543;SDS011;17996;51.056;3.656;2023-02-04T04:23:26;31.73;;;19.60;;
27543;SDS011;17996;51.056;3.656;2023-02-04T04:25:51;29.67;;;20.20;;
27543;SDS011;17996;51.056;3.656;2023-02-04T04:28:17;30.35;;;20.30;;
27543;SDS011;17996;51.056;3.656;2023-02-04T04:30:43;29.80;;;20.73;;
27543;SDS011;17996;51.056;3.656;2023-02-04T04:33:08;34.72;;;21.08;;
27543;SDS011;17996;51.056;3.656;2023-02-04T04:35:34;29.45;;;21.48;;
27543;SDS011;17996;51.056;3.656;2023-02-04T04:38:00;29.88;;;20.92;;
27543;SDS011;17996;51.056;3.656;2023-02-04T04:40:26;35.22;;;22.48;;
27543;SDS011;17996;51.056;3.656;2023-02-04T04:42:52;33.72;;;21.35;;
27543;SDS011;17996;51.056;3.656;2023-02-04T04:45:17;36.05;;;23.52;;
27543;SDS011;17996;51.056;3.656;2023-02-04T04:47:45;32.35;;;22.58;;
27543;SDS011;17996;51.056;3.656;2023-02-04T04:50:10;36.17;;;23.23;;
27543;SDS011;17996;51.056;3.656;2023-02-04T04:52:36;33.28;;;22.60;;
27543;SDS011;17996;51.056;3.656;2023-02-04T04:55:02;33.35;;;22.30;;
27543;SDS011;17996;51.056;3.656;2023-02-04T04:57:28;33.72;;;22.30;;
27543;SDS011;17996;51.056;3.656;2023-02-04T04:59:54;35.10;;;22.95;;
27543;SDS011;17996;51.056;3.656;2023-02-04T05:02:19;38.60;;;24.55;;
27543;SDS011;17996;51.056;3.656;2023-02-04T05:04:45;42.45;;;25.65;;
27543;SDS011;17996;51.056;3.656;2023-02-04T05:07:10;40.83;;;26.05;;
27543;SDS011;17996;51.056;3.656;2023-02-04T05:09:36;36.10;;;25.45;;
27543;SDS011;17996;51.056;3.656;2023-02-04T05:12:02;39.78;;;25.30;;
27543;SDS011;17996;51.056;3.656;2023-02-04T05:14:28;49.15;;;28.60;;
27543;SDS011;17996;51.056;3.656;2023-02-04T05:16:54;39.20;;;26.05;;
27543;SDS011;17996;51.056;3.656;2023-02-04T05:19:19;41.70;;;28.02;;
27543;SDS011;17996;51.056;3.656;2023-02-04T05:21:45;47.42;;;29.05;;
27543;SDS011;17996;51.056;3.656;2023-02-04T05:24:11;49.33;;;29.83;;
27543;SDS011;17996;51.056;3.656;2023-02-04T05:26:36;53.08;;;29.73;;
27543;SDS011;17996;51.056;3.656;2023-02-04T05:29:02;51.83;;;28.92;;
27543;SDS011;17996;51.056;3.656;2023-02-04T05:31:28;48.53;;;27.30;;
27543;SDS011;17996;51.056;3.656;2023-02-04T05:33:53;54.38;;;29.15;;
27543;SDS011;17996;51.056;3.656;2023-02-04T05:36:19;50.13;;;28.83;;
27543;SDS011;17996;51.056;3.656;2023-02-04T05:38:45;61.92;;;27.00;;
27543;SDS011;17996;51.056;3.656;2023-02-04T05:41:11;45.05;;;25.55;;
27543;SDS011;17996;51.056;3.656;2023-02-04T05:43:36;53.45;;;26.80;;
27543;SDS011;17996;51.056;3.656;2023-02-04T05:46:02;48.13;;;25.67;;
27543;SDS011;17996;51.056;3.656;2023-02-04T05:48:28;53.33;;;27.30;;
27543;SDS011;17996;51.056;3.656;2023-02-04T05:50:54;55.38;;;26.27;;
27543;SDS011;17996;51.056;3.656;2023-02-04T05:53:19;53.47;;;26.10;;
27543;SDS011;17996;51.056;3.656;2023-02-04T05:55:45;53.22;;;25.42;;
27543;SDS011;17996;51.056;3.656;2023-02-04T05:58:11;51.70;;;23.83;;
27543;SDS011;17996;51.056;3.656;2023-02-04T06:00:37;52.55;;;24.83;;
27543;SDS011;17996;51.056;3.656;2023-02-04T06:03:02;48.97;;;25.27;;
27543;SDS011;17996;51.056;3.656;2023-02-04T06:05:29;50.63;;;26.13;;
27543;SDS011;17996;51.056;3.656;2023-02-04T06:07:54;51.20;;;25.60;;
27543;SDS011;17996;51.056;3.656;2023-02-04T06:10:20;47.70;;;24.35;;
27543;SDS011;17996;51.056;3.656;2023-02-04T06:12:46;63.47;;;26.35;;
27543;SDS011;17996;51.056;3.656;2023-02-04T06:15:12;58.03;;;28.42;;
27543;SDS011;17996;51.056;3.656;2023-02-04T06:17:38;58.25;;;26.08;;
27543;SDS011;17996;51.056;3.656;2023-02-04T06:20:04;53.33;;;26.95;;
27543;SDS011;17996;51.056;3.656;2023-02-04T06:22:31;52.00;;;26.90;;
27543;SDS011;17996;51.056;3.656;2023-02-04T06:24:57;52.40;;;24.60;;
27543;SDS011;17996;51.056;3.656;2023-02-04T06:27:22;53.00;;;25.27;;
27543;SDS011;17996;51.056;3.656;2023-02-04T06:29:49;53.50;;;23.17;;
27543;SDS011;17996;51.056;3.656;2023-02-04T06:32:15;46.30;;;21.63;;
27543;SDS011;17996;51.056;3.656;2023-02-04T06:34:41;45.00;;;22.95;;
27543;SDS011;17996;51.056;3.656;2023-02-04T06:37:07;53.10;;;21.70;;
27543;SDS011;17996;51.056;3.656;2023-02-04T06:39:32;49.05;;;21.73;;
27543;SDS011;17996;51.056;3.656;2023-02-04T06:41:58;48.88;;;23.00;;
27543;SDS011;17996;51.056;3.656;2023-02-04T06:44:24;50.38;;;21.77;;
27543;SDS011;17996;51.056;3.656;2023-02-04T06:46:49;50.53;;;22.60;;
27543;SDS011;17996;51.056;3.656;2023-02-04T06:49:15;55.80;;;21.08;;
27543;SDS011;17996;51.056;3.656;2023-02-04T06:51:41;55.08;;;20.88;;
27543;SDS011;17996;51.056;3.656;2023-02-04T06:54:06;45.53;;;19.13;;
27543;SDS011;17996;51.056;3.656;2023-02-04T06:56:33;51.50;;;19.17;;
27543;SDS011;17996;51.056;3.656;2023-02-04T06:58:59;50.72;;;20.08;;
27543;SDS011;17996;51.056;3.656;2023-02-04T07:01:24;50.55;;;17.83;;
27543;SDS011;17996;51.056;3.656;2023-02-04T07:03:50;37.08;;;16.30;;
27543;SDS011;17996;51.056;3.656;2023-02-04T07:06:16;50.25;;;19.17;;
27543;SDS011;17996;51.056;3.656;2023-02-04T07:08:41;44.40;;;18.23;;
27543;SDS011;17996;51.056;3.656;2023-02-04T07:11:07;39.53;;;16.38;;
27543;SDS011;17996;51.056;3.656;2023-02-04T07:13:32;45.13;;;17.23;;
27543;SDS011;17996;51.056;3.656;2023-02-04T07:15:58;44.03;;;17.65;;
27543;SDS011;17996;51.056;3.656;2023-02-04T07:18:24;48.85;;;17.70;;
27543;SDS011;17996;51.056;3.656;2023-02-04T07:20:49;45.92;;;18.25;;
27543;SDS011;17996;51.056;3.656;2023-02-04T07:23:15;36.83;;;16.55;;
27543;SDS011;17996;51.056;3.656;2023-02-04T07:25:41;37.90;;;16.73;;
27543;SDS011;17996;51.056;3.656;2023-02-04T07:28:08;35.58;;;16.13;;
27543;SDS011;17996;51.056;3.656;2023-02-04T07:30:34;36.67;;;17.48;;
27543;SDS011;17996;51.056;3.656;2023-02-04T07:32:59;39.50;;;16.42;;
27543;SDS011;17996;51.056;3.656;2023-02-04T07:35:25;39.35;;;16.63;;
27543;SDS011;17996;51.056;3.656;2023-02-04T07:37:51;36.58;;;16.35;;
27543;SDS011;17996;51.056;3.656;2023-02-04T07:40:17;43.42;;;15.18;;
27543;SDS011;17996;51.056;3.656;2023-02-04T07:42:42;38.92;;;16.38;;
27543;SDS011;17996;51.056;3.656;2023-02-04T07:45:08;38.83;;;17.95;;
27543;SDS011;17996;51.056;3.656;2023-02-04T07:47:34;48.42;;;19.75;;
27543;SDS011;17996;51.056;3.656;2023-02-04T07:50:00;49.00;;;19.17;;
27543;SDS011;17996;51.056;3.656;2023-02-04T07:52:25;48.22;;;18.38;;
27543;SDS011;17996;51.056;3.656;2023-02-04T07:54:51;40.13;;;18.08;;
27543;SDS011;17996;51.056;3.656;2023-02-04T07:57:17;37.75;;;16.70;;
27543;SDS011;17996;51.056;3.656;2023-02-04T07:59:43;42.85;;;16.65;;
27543;SDS011;17996;51.056;3.656;2023-02-04T08:02:09;36.95;;;17.48;;
27543;SDS011;17996;51.056;3.656;2023-02-04T08:04:35;41.53;;;16.77;;
27543;SDS011;17996;51.056;3.656;2023-02-04T08:07:02;49.72;;;17.08;;
27543;SDS011;17996;51.056;3.656;2023-02-04T08:09:28;32.00;;;15.65;;
27543;SDS011;17996;51.056;3.656;2023-02-04T08:11:53;27.58;;;14.63;;
27543;SDS011;17996;51.056;3.656;2023-02-04T08:14:19;40.42;;;15.45;;
27543;SDS011;17996;51.056;3.656;2023-02-04T08:16:45;40.50;;;15.68;;
27543;SDS011;17996;51.056;3.656;2023-02-04T08:19:11;41.22;;;14.90;;
27543;SDS011;17996;51.056;3.656;2023-02-04T08:21:43;33.50;;;14.50;;
27543;SDS011;17996;51.056;3.656;2023-02-04T08:24:10;45.72;;;15.90;;
27543;SDS011;17996;51.056;3.656;2023-02-04T08:26:39;46.63;;;13.45;;
27543;SDS011;17996;51.056;3.656;2023-02-04T08:29:06;37.45;;;14.32;;
27543;SDS011;17996;51.056;3.656;2023-02-04T08:31:32;36.65;;;15.00;;
27543;SDS011;17996;51.056;3.656;2023-02-04T08:33:57;33.63;;;15.52;;
27543;SDS011;17996;51.056;3.656;2023-02-04T08:36:23;39.53;;;15.55;;
27543;SDS011;17996;51.056;3.656;2023-02-04T08:38:49;41.55;;;14.10;;
27543;SDS011;17996;51.056;3.656;2023-02-04T08:41:15;27.77;;;14.13;;
27543;SDS011;17996;51.056;3.656;2023-02-04T08:43:40;36.50;;;14.60;;
27543;SDS011;17996;51.056;3.656;2023-02-04T08:46:06;43.03;;;15.23;;
27543;SDS011;17996;51.056;3.656;2023-02-04T08:48:32;32.10;;;14.05;;
27543;SDS011;17996;51.056;3.656;2023-02-04T08:50:57;42.53;;;15.05;;
27543;SDS011;17996;51.056;3.656;2023-02-04T08:53:23;30.10;;;14.45;;
27543;SDS011;17996;51.056;3.656;2023-02-04T08:55:49;39.03;;;14.60;;
27543;SDS011;17996;51.056;3.656;2023-02-04T08:58:14;30.27;;;14.75;;
27543;SDS011;17996;51.056;3.656;2023-02-04T09:00:40;36.35;;;14.52;;
27543;SDS011;17996;51.056;3.656;2023-02-04T09:03:05;28.58;;;12.02;;
27543;SDS011;17996;51.056;3.656;2023-02-04T09:05:31;30.35;;;12.35;;
27543;SDS011;17996;51.056;3.656;2023-02-04T09:07:57;30.77;;;12.55;;
27543;SDS011;17996;51.056;3.656;2023-02-04T09:10:23;29.15;;;12.32;;
27543;SDS011;17996;51.056;3.656;2023-02-04T09:12:49;26.50;;;12.57;;
27543;SDS011;17996;51.056;3.656;2023-02-04T09:15:20;25.35;;;12.23;;
27543;SDS011;17996;51.056;3.656;2023-02-04T09:17:49;29.33;;;12.65;;
27543;SDS011;17996;51.056;3.656;2023-02-04T09:20:18;31.00;;;11.52;;
27543;SDS011;17996;51.056;3.656;2023-02-04T09:22:44;29.88;;;11.48;;
27543;SDS011;17996;51.056;3.656;2023-02-04T09:25:12;29.17;;;11.65;;
27543;SDS011;17996;51.056;3.656;2023-02-04T09:27:37;20.98;;;10.77;;
27543;SDS011;17996;51.056;3.656;2023-02-04T09:30:03;29.85;;;11.45;;
27543;SDS011;17996;51.056;3.656;2023-02-04T09:32:29;30.20;;;10.60;;
27543;SDS011;17996;51.056;3.656;2023-02-04T09:34:55;25.65;;;9.25;;
27543;SDS011;17996;51.056;3.656;2023-02-04T09:37:20;22.05;;;9.07;;
27543;SDS011;17996;51.056;3.656;2023-02-04T09:39:48;24.23;;;8.80;;
27543;SDS011;17996;51.056;3.656;2023-02-04T09:42:14;21.65;;;8.40;;
27543;SDS011;17996;51.056;3.656;2023-02-04T09:44:40;26.15;;;8.98;;
27543;SDS011;17996;51.056;3.656;2023-02-04T09:47:09;27.50;;;8.27;;
27543;SDS011;17996;51.056;3.656;2023-02-04T09:49:37;21.42;;;7.50;;
27543;SDS011;17996;51.056;3.656;2023-02-04T09:52:03;24.40;;;8.23;;
27543;SDS011;17996;51.056;3.656;2023-02-04T09:54:30;19.60;;;7.65;;
27543;SDS011;17996;51.056;3.656;2023-02-04T09:56:57;20.88;;;7.15;;
27543;SDS011;17996;51.056;3.656;2023-02-04T09:59:25;20.27;;;8.00;;
27543;SDS011;17996;51.056;3.656;2023-02-04T10:01:59;18.90;;;7.72;;
27543;SDS011;17996;51.056;3.656;2023-02-04T10:04:25;21.80;;;6.82;;
27543;SDS011;17996;51.056;3.656;2023-02-04T10:06:52;21.13;;;7.03;;
27543;SDS011;17996;51.056;3.656;2023-02-04T10:09:19;18.80;;;7.57;;
27543;SDS011;17996;51.056;3.656;2023-02-04T10:11:45;15.98;;;7.20;;
27543;SDS011;17996;51.056;3.656;2023-02-04T10:14:13;17.95;;;8.00;;
27543;SDS011;17996;51.056;3.656;2023-02-04T10:19:12;21.80;;;6.80;;
27543;SDS011;17996;51.056;3.656;2023-02-04T10:21:45;24.30;;;7.03;;
27543;SDS011;17996;51.056;3.656;2023-02-04T10:24:13;18.05;;;7.43;;
27543;SDS011;17996;51.056;3.656;2023-02-04T10:26:41;20.90;;;7.90;;
27543;SDS011;17996;51.056;3.656;2023-02-04T10:29:11;21.67;;;6.32;;
27543;SDS011;17996;51.056;3.656;2023-02-04T10:31:44;23.80;;;7.75;;
27543;SDS011;17996;51.056;3.656;2023-02-04T10:34:13;21.75;;;7.22;;
27543;SDS011;17996;51.056;3.656;2023-02-04T10:36:46;18.60;;;7.05;;
27543;SDS011;17996;51.056;3.656;2023-02-04T10:39:16;19.25;;;7.75;;
27543;SDS011;17996;51.056;3.656;2023-02-04T10:41:44;21.60;;;7.82;;
27543;SDS011;17996;51.056;3.656;2023-02-04T10:44:45;19.30;;;8.00;;
27543;SDS011;17996;51.056;3.656;2023-02-04T10:47:22;17.83;;;7.40;;
27543;SDS011;17996;51.056;3.656;2023-02-04T10:49:55;19.55;;;7.20;;
27543;SDS011;17996;51.056;3.656;2023-02-04T10:52:23;20.17;;;7.53;;
27543;SDS011;17996;51.056;3.656;2023-02-04T10:54:57;20.27;;;7.38;;
27543;SDS011;17996;51.056;3.656;2023-02-04T10:57:25;18.98;;;8.10;;
27543;SDS011;17996;51.056;3.656;2023-02-04T10:59:54;24.02;;;8.50;;
27543;SDS011;17996;51.056;3.656;2023-02-04T11:04:51;23.05;;;8.52;;
27543;SDS011;17996;51.056;3.656;2023-02-04T11:07:17;23.60;;;8.65;;
27543;SDS011;17996;51.056;3.656;2023-02-04T11:09:43;23.42;;;7.57;;
27543;SDS011;17996;51.056;3.656;2023-02-04T11:12:22;16.98;;;7.20;;
27543;SDS011;17996;51.056;3.656;2023-02-04T11:15:02;30.15;;;8.02;;
27543;SDS011;17996;51.056;3.656;2023-02-04T11:17:32;21.30;;;7.90;;
27543;SDS011;17996;51.056;3.656;2023-02-04T11:19:59;17.05;;;7.03;;
27543;SDS011;17996;51.056;3.656;2023-02-04T11:22:44;12.93;;;6.60;;
27543;SDS011;17996;51.056;3.656;2023-02-04T11:25:33;15.70;;;6.93;;
27543;SDS011;17996;51.056;3.656;2023-02-04T11:30:59;14.90;;;7.20;;
27543;SDS011;17996;51.056;3.656;2023-02-04T11:33:38;20.67;;;6.47;;
27543;SDS011;17996;51.056;3.656;2023-02-04T11:36:06;22.52;;;6.78;;
27543;SDS011;17996;51.056;3.656;2023-02-04T11:38:35;21.27;;;6.25;;
27543;SDS011;17996;51.056;3.656;2023-02-04T11:41:02;18.90;;;7.13;;
27543;SDS011;17996;51.056;3.656;2023-02-04T11:43:32;19.25;;;6.78;;
27543;SDS011;17996;51.056;3.656;2023-02-04T11:46:02;19.08;;;6.40;;
27543;SDS011;17996;51.056;3.656;2023-02-04T11:48:35;13.00;;;6.68;;
27543;SDS011;17996;51.056;3.656;2023-02-04T11:51:01;21.63;;;7.68;;
27543;SDS011;17996;51.056;3.656;2023-02-04T11:53:34;17.00;;;7.22;;
27543;SDS011;17996;51.056;3.656;2023-02-04T11:56:00;16.90;;;7.10;;
27543;SDS011;17996;51.056;3.656;2023-02-04T11:58:25;15.00;;;7.97;;
27543;SDS011;17996;51.056;3.656;2023-02-04T12:00:54;18.63;;;7.05;;
27543;SDS011;17996;51.056;3.656;2023-02-04T12:05:58;14.25;;;7.03;;
27543;SDS011;17996;51.056;3.656;2023-02-04T12:10:58;19.05;;;7.30;;
27543;SDS011;17996;51.056;3.656;2023-02-04T12:13:30;15.95;;;7.10;;
27543;SDS011;17996;51.056;3.656;2023-02-04T12:18:27;19.48;;;7.00;;
27543;SDS011;17996;51.056;3.656;2023-02-04T12:20:57;22.90;;;7.53;;
27543;SDS011;17996;51.056;3.656;2023-02-04T12:23:24;23.00;;;7.07;;
27543;SDS011;17996;51.056;3.656;2023-02-04T12:25:51;22.10;;;8.52;;
27543;SDS011;17996;51.056;3.656;2023-02-04T12:28:17;20.02;;;7.72;;
27543;SDS011;17996;51.056;3.656;2023-02-04T12:30:43;17.92;;;7.88;;
27543;SDS011;17996;51.056;3.656;2023-02-04T12:33:09;19.88;;;7.50;;
27543;SDS011;17996;51.056;3.656;2023-02-04T12:35:35;18.65;;;7.55;;
27543;SDS011;17996;51.056;3.656;2023-02-04T12:38:01;15.55;;;6.90;;
27543;SDS011;17996;51.056;3.656;2023-02-04T12:40:27;18.63;;;7.85;;
27543;SDS011;17996;51.056;3.656;2023-02-04T12:42:52;18.10;;;7.10;;
27543;SDS011;17996;51.056;3.656;2023-02-04T12:45:18;19.88;;;6.80;;
27543;SDS011;17996;51.056;3.656;2023-02-04T12:47:44;18.40;;;7.40;;
27543;SDS011;17996;51.056;3.656;2023-02-04T12:50:11;19.13;;;6.63;;
27543;SDS011;17996;51.056;3.656;2023-02-04T12:52:47;18.10;;;6.35;;
27543;SDS011;17996;51.056;3.656;2023-02-04T12:55:14;14.50;;;7.43;;
27543;SDS011;17996;51.056;3.656;2023-02-04T12:57:39;21.27;;;7.85;;
27543;SDS011;17996;51.056;3.656;2023-02-04T13:00:05;19.38;;;7.20;;
27543;SDS011;17996;51.056;3.656;2023-02-04T13:02:31;16.55;;;7.47;;
27543;SDS011;17996;51.056;3.656;2023-02-04T13:04:57;21.15;;;6.90;;
27543;SDS011;17996;51.056;3.656;2023-02-04T13:07:22;16.27;;;7.43;;
27543;SDS011;17996;51.056;3.656;2023-02-04T13:09:48;13.65;;;6.97;;
27543;SDS011;17996;51.056;3.656;2023-02-04T13:12:14;13.35;;;6.80;;
27543;SDS011;17996;51.056;3.656;2023-02-04T13:14:40;21.73;;;7.45;;
27543;SDS011;17996;51.056;3.656;2023-02-04T13:17:06;18.75;;;7.70;;
27543;SDS011;17996;51.056;3.656;2023-02-04T13:19:32;18.48;;;6.60;;
27543;SDS011;17996;51.056;3.656;2023-02-04T13:21:58;14.98;;;6.22;;
27543;SDS011;17996;51.056;3.656;2023-02-04T13:24:24;16.67;;;6.82;;
27543;SDS011;17996;51.056;3.656;2023-02-04T13:26:50;17.73;;;7.00;;
27543;SDS011;17996;51.056;3.656;2023-02-04T13:29:15;18.45;;;8.15;;
27543;SDS011;17996;51.056;3.656;2023-02-04T13:31:41;19.85;;;6.72;;
27543;SDS011;17996;51.056;3.656;2023-02-04T13:34:07;14.80;;;5.15;;
27543;SDS011;17996;51.056;3.656;2023-02-04T13:36:32;23.80;;;6.93;;
27543;SDS011;17996;51.056;3.656;2023-02-04T13:38:58;14.50;;;5.75;;
27543;SDS011;17996;51.056;3.656;2023-02-04T13:41:25;23.27;;;6.70;;
27543;SDS011;17996;51.056;3.656;2023-02-04T13:43:51;19.48;;;6.57;;
27543;SDS011;17996;51.056;3.656;2023-02-04T13:46:16;14.27;;;6.20;;
27543;SDS011;17996;51.056;3.656;2023-02-04T13:48:42;14.38;;;6.13;;
27543;SDS011;17996;51.056;3.656;2023-02-04T13:51:08;13.75;;;6.82;;
27543;SDS011;17996;51.056;3.656;2023-02-04T13:53:33;19.02;;;6.90;;
27543;SDS011;17996;51.056;3.656;2023-02-04T13:55:59;14.55;;;6.15;;
27543;SDS011;17996;51.056;3.656;2023-02-04T13:58:25;13.95;;;6.28;;
27543;SDS011;17996;51.056;3.656;2023-02-04T14:00:51;20.42;;;6.60;;
27543;SDS011;17996;51.056;3.656;2023-02-04T14:03:21;21.50;;;6.82;;
27543;SDS011;17996;51.056;3.656;2023-02-04T14:05:48;15.88;;;6.20;;
27543;SDS011;17996;51.056;3.656;2023-02-04T14:08:14;16.10;;;6.20;;
27543;SDS011;17996;51.056;3.656;2023-02-04T14:10:39;13.27;;;6.20;;
27543;SDS011;17996;51.056;3.656;2023-02-04T14:13:05;14.00;;;5.85;;
27543;SDS011;17996;51.056;3.656;2023-02-04T14:15:30;15.90;;;6.63;;
27543;SDS011;17996;51.056;3.656;2023-02-04T14:17:58;17.40;;;6.95;;
27543;SDS011;17996;51.056;3.656;2023-02-04T14:20:24;16.90;;;6.38;;
27543;SDS011;17996;51.056;3.656;2023-02-04T14:22:50;21.00;;;7.00;;
27543;SDS011;17996;51.056;3.656;2023-02-04T14:25:16;16.02;;;6.18;;
27543;SDS011;17996;51.056;3.656;2023-02-04T14:27:41;16.98;;;6.38;;
27543;SDS011;17996;51.056;3.656;2023-02-04T14:30:28;10.98;;;5.38;;
27543;SDS011;17996;51.056;3.656;2023-02-04T14:32:53;13.43;;;6.38;;
27543;SDS011;17996;51.056;3.656;2023-02-04T14:35:20;14.32;;;5.82;;
27543;SDS011;17996;51.056;3.656;2023-02-04T14:37:46;15.13;;;6.47;;
27543;SDS011;17996;51.056;3.656;2023-02-04T14:40:12;14.68;;;6.55;;
27543;SDS011;17996;51.056;3.656;2023-02-04T14:42:39;17.45;;;6.45;;